createdAt,value
2017-03-17T00:00:34.550Z,0
2017-03-17T00:01:43.311Z,0
2017-03-17T00:02:52.980Z,0
2017-03-17T00:04:01.740Z,0
2017-03-17T00:05:10.811Z,0
2017-03-17T00:06:20.175Z,0
2017-03-17T00:07:29.248Z,0
2017-03-17T00:08:38.854Z,0
2017-03-17T00:09:48.194Z,0
2017-03-17T00:10:56.881Z,0
2017-03-17T00:12:05.638Z,0
2017-03-17T00:13:14.389Z,0
2017-03-17T00:14:23.149Z,0
2017-03-17T00:15:31.912Z,0
2017-03-17T00:16:40.974Z,0
2017-03-17T00:17:49.994Z,0
2017-03-17T00:18:58.757Z,0
2017-03-17T00:20:07.529Z,0
2017-03-17T00:21:16.592Z,0
2017-03-17T00:22:25.372Z,0
2017-03-17T00:23:34.429Z,0
2017-03-17T00:24:43.425Z,0
2017-03-17T00:25:52.492Z,0
2017-03-17T00:27:01.258Z,0
2017-03-17T00:28:10.322Z,0
2017-03-17T00:29:19.084Z,0
2017-03-17T00:30:28.478Z,0
2017-03-17T00:31:37.234Z,0
2017-03-17T00:32:46.000Z,0
2017-03-17T00:33:54.690Z,0
2017-03-17T00:35:03.686Z,0
2017-03-17T00:36:12.452Z,0
2017-03-17T00:37:21.512Z,0
2017-03-17T00:38:30.815Z,0
2017-03-17T00:39:40.179Z,0
2017-03-17T00:40:48.869Z,0
2017-03-17T00:41:57.939Z,0
2017-03-17T00:43:06.993Z,0
2017-03-17T00:44:15.750Z,0
2017-03-17T00:45:24.520Z,0
2017-03-17T00:46:33.593Z,0
2017-03-17T00:47:42.656Z,0
2017-03-17T00:48:51.341Z,0
2017-03-17T00:50:00.102Z,0
2017-03-17T00:51:08.874Z,0
2017-03-17T00:52:17.934Z,0
2017-03-17T00:53:26.698Z,0
2017-03-17T00:54:35.763Z,0
2017-03-17T00:55:44.518Z,0
2017-03-17T00:56:53.584Z,0
2017-03-17T00:58:02.279Z,0
2017-03-17T00:59:10.988Z,0
2017-03-17T01:00:20.057Z,0
2017-03-17T01:01:28.818Z,0
2017-03-17T01:02:38.194Z,0
2017-03-17T01:03:47.866Z,0
2017-03-17T01:04:57.551Z,0
2017-03-17T01:06:06.605Z,0
2017-03-17T01:07:15.973Z,0
2017-03-17T01:08:25.041Z,0
2017-03-17T01:09:34.112Z,0
2017-03-17T01:10:43.169Z,0
2017-03-17T01:11:52.266Z,0
2017-03-17T01:13:01.588Z,0
2017-03-17T01:14:10.345Z,0
2017-03-17T01:15:19.403Z,0
2017-03-17T01:16:28.165Z,0
2017-03-17T01:17:37.220Z,0
2017-03-17T01:18:46.605Z,0
2017-03-17T01:19:55.371Z,0
2017-03-17T01:21:04.120Z,0
2017-03-17T01:22:13.195Z,0
2017-03-17T01:23:22.568Z,0
2017-03-17T01:24:31.343Z,0
2017-03-17T01:25:40.102Z,0
2017-03-17T01:26:49.161Z,0
2017-03-17T01:27:58.536Z,0
2017-03-17T01:29:07.292Z,0
2017-03-17T01:30:16.058Z,0
2017-03-17T01:31:24.823Z,0
2017-03-17T01:32:33.917Z,0
2017-03-17T01:33:43.900Z,0
2017-03-17T01:34:52.975Z,0
2017-03-17T01:36:01.976Z,0
2017-03-17T01:37:10.732Z,0
2017-03-17T01:38:19.797Z,0
2017-03-17T01:39:29.986Z,0
2017-03-17T01:40:38.683Z,0
2017-03-17T01:41:47.749Z,0
2017-03-17T01:42:56.511Z,0
2017-03-17T01:44:05.566Z,0
2017-03-17T01:45:14.573Z,0
2017-03-17T01:46:23.645Z,0
2017-03-17T01:47:32.711Z,0
2017-03-17T01:48:42.386Z,0
2017-03-17T01:49:51.138Z,0
2017-03-17T01:50:59.894Z,0
2017-03-17T01:52:08.638Z,0
2017-03-17T01:53:17.699Z,0
2017-03-17T01:54:26.695Z,0
2017-03-17T01:55:36.015Z,0
2017-03-17T01:56:44.708Z,0
2017-03-17T01:57:53.804Z,0
2017-03-17T01:59:03.171Z,0
2017-03-17T02:00:13.174Z,0
2017-03-17T02:01:22.238Z,0
2017-03-17T02:02:31.004Z,0
2017-03-17T02:03:40.075Z,0
2017-03-17T02:04:49.147Z,0
2017-03-17T02:05:57.914Z,0
2017-03-17T02:07:06.680Z,0
2017-03-17T02:08:16.653Z,0
2017-03-17T02:09:25.714Z,0
2017-03-17T02:10:34.475Z,0
2017-03-17T02:11:43.434Z,0
2017-03-17T02:12:52.503Z,0
2017-03-17T02:14:01.597Z,0
2017-03-17T02:15:10.966Z,0
2017-03-17T02:16:19.674Z,0
2017-03-17T02:17:28.436Z,0
2017-03-17T02:18:37.504Z,0
2017-03-17T02:19:46.499Z,0
2017-03-17T02:20:55.267Z,0
2017-03-17T02:22:04.025Z,0
2017-03-17T02:23:13.114Z,0
2017-03-17T02:24:22.482Z,0
2017-03-17T02:25:31.240Z,0
2017-03-17T02:26:40.012Z,0
2017-03-17T02:27:49.385Z,0
2017-03-17T02:28:58.752Z,0
2017-03-17T02:30:07.539Z,0
2017-03-17T02:31:16.595Z,0
2017-03-17T02:32:25.850Z,0
2017-03-17T02:33:34.914Z,0
2017-03-17T02:34:43.666Z,0
2017-03-17T02:35:52.733Z,0
2017-03-17T02:37:01.795Z,0
2017-03-17T02:38:11.169Z,0
2017-03-17T02:39:20.535Z,0
2017-03-17T02:40:29.836Z,0
2017-03-17T02:41:38.897Z,0
2017-03-17T02:42:48.882Z,0
2017-03-17T02:43:58.258Z,0
2017-03-17T02:45:07.958Z,0
2017-03-17T02:46:17.008Z,0
2017-03-17T02:47:25.771Z,0
2017-03-17T02:48:35.133Z,0
2017-03-17T02:49:43.836Z,0
2017-03-17T02:50:52.903Z,0
2017-03-17T02:52:02.562Z,0
2017-03-17T02:53:11.325Z,0
2017-03-17T02:54:20.706Z,0
2017-03-17T02:55:30.084Z,0
2017-03-17T02:56:39.450Z,0
2017-03-17T02:57:48.148Z,0
2017-03-17T02:58:57.527Z,0
2017-03-17T03:00:07.100Z,0
2017-03-17T03:01:16.171Z,0
2017-03-17T03:02:25.543Z,0
2017-03-17T03:03:34.613Z,0
2017-03-17T03:04:43.978Z,0
2017-03-17T03:05:53.338Z,0
2017-03-17T03:07:02.043Z,0
2017-03-17T03:08:11.137Z,0
2017-03-17T03:09:20.805Z,0
2017-03-17T03:10:29.885Z,0
2017-03-17T03:11:39.250Z,0
2017-03-17T03:12:48.936Z,0
2017-03-17T03:13:58.610Z,0
2017-03-17T03:15:07.985Z,0
2017-03-17T03:16:17.051Z,0
2017-03-17T03:17:26.109Z,0
2017-03-17T03:18:36.091Z,0
2017-03-17T03:19:44.855Z,0
2017-03-17T03:20:53.619Z,0
2017-03-17T03:22:02.985Z,0
2017-03-17T03:23:12.047Z,0
2017-03-17T03:24:21.675Z,0
2017-03-17T03:25:31.041Z,0
2017-03-17T03:26:39.802Z,0
2017-03-17T03:27:49.187Z,0
2017-03-17T03:28:58.834Z,0
2017-03-17T03:30:08.207Z,0
2017-03-17T03:31:17.832Z,0
2017-03-17T03:32:26.608Z,0
2017-03-17T03:33:36.604Z,0
2017-03-17T03:34:46.210Z,0
2017-03-17T03:35:55.583Z,0
2017-03-17T03:37:04.655Z,0
2017-03-17T03:38:14.031Z,0
2017-03-17T03:39:23.703Z,0
2017-03-17T03:40:32.765Z,0
2017-03-17T03:41:42.134Z,0
2017-03-17T03:42:50.900Z,0
2017-03-17T03:44:00.517Z,0
2017-03-17T03:45:09.883Z,0
2017-03-17T03:46:19.574Z,0
2017-03-17T03:47:28.943Z,0
2017-03-17T03:48:38.026Z,0
2017-03-17T03:49:47.697Z,0
2017-03-17T03:50:56.792Z,0
2017-03-17T03:52:05.802Z,0
2017-03-17T03:53:15.328Z,0
2017-03-17T03:54:25.311Z,0
2017-03-17T03:55:34.368Z,0
2017-03-17T03:56:43.127Z,0
2017-03-17T03:57:53.114Z,0
2017-03-17T03:59:03.398Z,0
2017-03-17T04:00:12.793Z,0
2017-03-17T04:01:21.557Z,0
2017-03-17T04:02:31.160Z,0
2017-03-17T04:03:40.501Z,0
2017-03-17T04:04:49.893Z,0
2017-03-17T04:05:58.958Z,0
2017-03-17T04:07:08.034Z,0
2017-03-17T04:08:18.010Z,0
2017-03-17T04:09:27.591Z,0
2017-03-17T04:10:36.953Z,0
2017-03-17T04:11:46.044Z,0
2017-03-17T04:12:55.735Z,0
2017-03-17T04:14:05.710Z,0
2017-03-17T04:15:14.774Z,0
2017-03-17T04:16:24.101Z,0
2017-03-17T04:17:33.773Z,0
2017-03-17T04:18:43.150Z,0
2017-03-17T04:19:52.515Z,0
2017-03-17T04:21:01.276Z,0
2017-03-17T04:22:10.032Z,0
2017-03-17T04:23:19.936Z,0
2017-03-17T04:24:30.218Z,0
2017-03-17T04:25:39.582Z,0
2017-03-17T04:26:48.343Z,0
2017-03-17T04:27:58.323Z,0
2017-03-17T04:29:07.996Z,0
2017-03-17T04:30:17.960Z,0
2017-03-17T04:31:27.034Z,0
2017-03-17T04:32:36.642Z,0
2017-03-17T04:33:45.638Z,0
2017-03-17T04:34:55.310Z,0
2017-03-17T04:36:04.074Z,0
2017-03-17T04:37:13.445Z,0
2017-03-17T04:38:22.773Z,0
2017-03-17T04:39:31.843Z,0
2017-03-17T04:40:41.226Z,0
2017-03-17T04:41:50.907Z,0
2017-03-17T04:42:59.681Z,0
2017-03-17T04:44:09.364Z,0
2017-03-17T04:45:18.433Z,0
2017-03-17T04:46:27.854Z,0
2017-03-17T04:47:37.460Z,0
2017-03-17T04:48:46.527Z,0
2017-03-17T04:49:56.202Z,0
2017-03-17T04:51:04.920Z,0
2017-03-17T04:52:13.978Z,0
2017-03-17T04:53:22.970Z,0
2017-03-17T04:54:32.347Z,0
2017-03-17T04:55:41.106Z,0
2017-03-17T04:56:49.868Z,0
2017-03-17T04:57:59.236Z,0
2017-03-17T04:59:08.306Z,0
2017-03-17T05:00:17.302Z,0
2017-03-17T05:01:26.372Z,0
2017-03-17T05:02:35.135Z,0
2017-03-17T05:03:44.520Z,0
2017-03-17T05:04:54.195Z,0
2017-03-17T05:06:03.192Z,0
2017-03-17T05:07:12.263Z,0
2017-03-17T05:08:21.429Z,0
2017-03-17T05:09:30.789Z,0
2017-03-17T05:10:39.554Z,0
2017-03-17T05:11:48.551Z,0
2017-03-17T05:12:57.924Z,0
2017-03-17T05:14:06.997Z,0
2017-03-17T05:15:16.060Z,0
2017-03-17T05:16:24.826Z,0
2017-03-17T05:17:33.600Z,0
2017-03-17T05:18:42.695Z,0
2017-03-17T05:19:51.769Z,0
2017-03-17T05:21:01.370Z,0
2017-03-17T05:22:10.080Z,0
2017-03-17T05:23:19.760Z,0
2017-03-17T05:24:29.441Z,0
2017-03-17T05:25:38.816Z,0
2017-03-17T05:26:47.586Z,0
2017-03-17T05:27:57.196Z,0
2017-03-17T05:29:06.569Z,0
2017-03-17T05:30:15.871Z,0
2017-03-17T05:31:24.632Z,0
2017-03-17T05:32:33.390Z,0
2017-03-17T05:33:42.145Z,0
2017-03-17T05:34:51.512Z,0
2017-03-17T05:36:00.874Z,0
2017-03-17T05:37:09.932Z,0
2017-03-17T05:38:19.002Z,0
2017-03-17T05:39:28.376Z,0
2017-03-17T05:40:37.446Z,0
2017-03-17T05:41:46.761Z,0
2017-03-17T05:42:56.745Z,0
2017-03-17T05:44:06.124Z,0
2017-03-17T05:45:15.496Z,0
2017-03-17T05:46:24.493Z,0
2017-03-17T05:47:33.555Z,0
2017-03-17T05:48:42.326Z,0
2017-03-17T05:49:51.389Z,0
2017-03-17T05:51:00.458Z,0
2017-03-17T05:52:09.225Z,0
2017-03-17T05:53:19.354Z,0
2017-03-17T05:54:28.664Z,0
2017-03-17T05:55:38.019Z,0
2017-03-17T05:56:46.780Z,0
2017-03-17T05:57:55.537Z,0
2017-03-17T05:59:05.146Z,0
2017-03-17T06:00:14.514Z,0
2017-03-17T06:01:23.582Z,0
2017-03-17T06:02:32.339Z,0
2017-03-17T06:03:41.717Z,0
2017-03-17T06:04:50.787Z,0
2017-03-17T06:06:00.169Z,0
2017-03-17T06:07:09.234Z,0
2017-03-17T06:08:18.600Z,0
2017-03-17T06:09:28.431Z,0
2017-03-17T06:10:37.466Z,0
2017-03-17T06:11:46.538Z,0
2017-03-17T06:12:56.467Z,0
2017-03-17T06:14:06.153Z,0
2017-03-17T06:15:15.217Z,0
2017-03-17T06:16:23.980Z,0
2017-03-17T06:17:32.749Z,0
2017-03-17T06:18:42.460Z,0
2017-03-17T06:19:51.521Z,0
2017-03-17T06:21:00.588Z,0
2017-03-17T06:22:09.583Z,0
2017-03-17T06:23:18.963Z,0
2017-03-17T06:24:28.272Z,0
2017-03-17T06:25:37.272Z,0
2017-03-17T06:26:46.346Z,0
2017-03-17T06:27:55.725Z,0
2017-03-17T06:29:04.495Z,0
2017-03-17T06:30:13.561Z,0
2017-03-17T06:31:22.634Z,0
2017-03-17T06:32:31.699Z,0
2017-03-17T06:33:41.388Z,0
2017-03-17T06:34:51.368Z,0
2017-03-17T06:36:00.435Z,0
2017-03-17T06:37:09.498Z,0
2017-03-17T06:38:18.567Z,0
2017-03-17T06:39:28.240Z,0
2017-03-17T06:40:37.554Z,0
2017-03-17T06:41:46.310Z,0
2017-03-17T06:42:55.624Z,0
2017-03-17T06:44:05.610Z,0
2017-03-17T06:45:14.675Z,0
2017-03-17T06:46:23.431Z,0
2017-03-17T06:47:33.035Z,0
2017-03-17T06:48:42.415Z,0
2017-03-17T06:49:51.488Z,0
2017-03-17T06:51:00.835Z,0
2017-03-17T06:52:09.911Z,0
2017-03-17T06:53:19.288Z,0
2017-03-17T06:54:28.664Z,0
2017-03-17T06:55:37.428Z,0
2017-03-17T06:56:46.798Z,0
2017-03-17T06:57:55.820Z,0
2017-03-17T06:59:05.494Z,0
2017-03-17T07:00:14.265Z,0
2017-03-17T07:01:23.631Z,0
2017-03-17T07:02:32.329Z,0
2017-03-17T07:03:41.407Z,0
2017-03-17T07:04:50.469Z,0
2017-03-17T07:05:59.471Z,0
2017-03-17T07:07:08.266Z,0
2017-03-17T07:08:17.953Z,0
2017-03-17T07:09:27.335Z,0
2017-03-17T07:10:36.702Z,0
2017-03-17T07:11:45.773Z,0
2017-03-17T07:12:55.384Z,0
2017-03-17T07:14:05.395Z,0
2017-03-17T07:15:14.459Z,0
2017-03-17T07:16:23.180Z,0
2017-03-17T07:17:32.244Z,0
2017-03-17T07:18:41.921Z,5
2017-03-17T07:19:51.899Z,5
2017-03-17T07:21:00.698Z,5
2017-03-17T07:22:09.763Z,5
2017-03-17T07:23:19.136Z,5
2017-03-17T07:24:29.118Z,5
2017-03-17T07:25:38.182Z,5
2017-03-17T07:26:47.559Z,5
2017-03-17T07:27:57.240Z,5
2017-03-17T07:29:07.238Z,5
2017-03-17T07:30:16.606Z,5
2017-03-17T07:31:25.676Z,5
2017-03-17T07:32:34.687Z,5
2017-03-17T07:33:44.066Z,5
2017-03-17T07:34:52.828Z,5
2017-03-17T07:36:01.891Z,5
2017-03-17T07:37:10.956Z,5
2017-03-17T07:38:20.631Z,5
2017-03-17T07:39:30.548Z,5
2017-03-17T07:40:39.617Z,5
2017-03-17T07:41:48.680Z,5
2017-03-17T07:42:58.365Z,5
2017-03-17T07:44:07.908Z,5
2017-03-17T07:45:17.206Z,0
2017-03-17T07:46:26.270Z,5
2017-03-17T07:47:35.045Z,5
2017-03-17T07:48:44.068Z,5
2017-03-17T07:49:53.438Z,5
2017-03-17T07:51:03.017Z,5
2017-03-17T07:52:12.384Z,5
2017-03-17T07:53:21.471Z,0
2017-03-17T07:54:31.457Z,5
2017-03-17T07:55:40.771Z,0
2017-03-17T07:56:49.775Z,0
2017-03-17T07:57:59.156Z,0
2017-03-17T07:59:09.140Z,0
2017-03-17T08:00:18.204Z,0
2017-03-17T08:01:27.151Z,0
2017-03-17T08:02:36.826Z,0
2017-03-17T08:03:46.504Z,0
2017-03-17T08:04:55.575Z,0
2017-03-17T08:06:04.950Z,0
2017-03-17T08:07:13.707Z,0
2017-03-17T08:08:23.072Z,0
2017-03-17T08:09:32.756Z,0
2017-03-17T08:10:41.777Z,0
2017-03-17T08:11:51.395Z,0
2017-03-17T08:13:00.761Z,0
2017-03-17T08:14:10.743Z,0
2017-03-17T08:15:20.730Z,0
2017-03-17T08:16:29.796Z,0
2017-03-17T08:17:39.432Z,0
2017-03-17T08:18:49.115Z,0
2017-03-17T08:19:58.489Z,0
2017-03-17T08:21:07.558Z,0
2017-03-17T08:22:16.252Z,0
2017-03-17T08:23:25.823Z,0
2017-03-17T08:24:35.191Z,0
2017-03-17T08:25:44.556Z,0
2017-03-17T08:26:53.623Z,0
2017-03-17T08:28:02.998Z,0
2017-03-17T08:29:12.611Z,0
2017-03-17T08:30:21.669Z,0
2017-03-17T08:31:30.434Z,0
2017-03-17T08:32:39.501Z,0
2017-03-17T08:33:48.868Z,0
2017-03-17T08:34:58.216Z,0
2017-03-17T08:36:06.980Z,0
2017-03-17T08:37:16.071Z,0
2017-03-17T08:38:25.758Z,0
2017-03-17T08:39:35.143Z,0
2017-03-17T08:40:43.912Z,0
2017-03-17T08:41:52.673Z,0
2017-03-17T08:43:01.746Z,0
2017-03-17T08:44:11.109Z,0
2017-03-17T08:45:19.811Z,0
2017-03-17T08:46:29.169Z,0
2017-03-17T08:47:37.931Z,0
2017-03-17T08:48:47.007Z,0
2017-03-17T08:49:56.074Z,0
2017-03-17T08:51:04.841Z,0
2017-03-17T08:52:14.157Z,0
2017-03-17T08:53:22.916Z,0
2017-03-17T08:54:31.934Z,0
2017-03-17T08:55:40.938Z,0
2017-03-17T08:56:49.703Z,0
2017-03-17T08:57:59.078Z,0
2017-03-17T08:59:08.145Z,0
2017-03-17T09:00:17.209Z,0
2017-03-17T09:01:25.965Z,0
2017-03-17T09:02:34.659Z,0
2017-03-17T09:03:44.330Z,0
2017-03-17T09:04:53.087Z,0
2017-03-17T09:06:01.851Z,0
2017-03-17T09:07:10.920Z,0
2017-03-17T09:08:20.234Z,0
2017-03-17T09:09:29.232Z,0
2017-03-17T09:10:37.957Z,0
2017-03-17T09:11:46.717Z,0
2017-03-17T09:12:55.472Z,0
2017-03-17T09:14:04.532Z,0
2017-03-17T09:15:13.298Z,0
2017-03-17T09:16:22.150Z,0
2017-03-17T09:17:31.146Z,0
2017-03-17T09:18:40.822Z,0
2017-03-17T09:19:49.589Z,0
2017-03-17T09:20:58.908Z,0
2017-03-17T09:22:07.971Z,0
2017-03-17T09:23:17.646Z,0
2017-03-17T09:24:26.640Z,0
2017-03-17T09:25:35.707Z,0
2017-03-17T09:26:44.475Z,0
2017-03-17T09:27:53.776Z,0
2017-03-17T09:29:02.842Z,0
2017-03-17T09:30:11.603Z,0
2017-03-17T09:31:20.366Z,0
2017-03-17T09:32:29.063Z,0
2017-03-17T09:33:38.438Z,5
2017-03-17T09:34:47.816Z,5
2017-03-17T09:35:56.576Z,0
2017-03-17T09:37:05.343Z,5
2017-03-17T09:38:14.421Z,5
2017-03-17T09:39:23.734Z,5
2017-03-17T09:40:32.736Z,5
2017-03-17T09:41:41.486Z,5
2017-03-17T09:42:50.554Z,5
2017-03-17T09:43:59.317Z,5
2017-03-17T09:45:08.374Z,5
2017-03-17T09:46:17.127Z,5
2017-03-17T09:47:26.489Z,5
2017-03-17T09:48:35.268Z,10
2017-03-17T09:49:44.268Z,35
2017-03-17T09:50:53.951Z,95
2017-03-17T09:52:02.944Z,25
2017-03-17T09:53:12.017Z,30
2017-03-17T09:54:21.376Z,45
2017-03-17T09:55:30.435Z,15
2017-03-17T09:56:39.194Z,20
2017-03-17T09:57:48.864Z,15
2017-03-17T09:58:57.932Z,30
2017-03-17T10:00:07.601Z,30
2017-03-17T10:01:16.656Z,30
2017-03-17T10:02:25.414Z,20
2017-03-17T10:03:34.779Z,25
2017-03-17T10:04:43.542Z,15
2017-03-17T10:05:52.536Z,70
2017-03-17T10:07:01.298Z,15
2017-03-17T10:08:10.671Z,30
2017-03-17T10:09:20.980Z,55
2017-03-17T10:10:30.654Z,45
2017-03-17T10:11:39.706Z,75
2017-03-17T10:12:49.014Z,35
2017-03-17T10:13:58.418Z,20
2017-03-17T10:15:12.176Z,15
2017-03-17T10:16:21.554Z,20
2017-03-17T10:17:30.320Z,30
2017-03-17T10:18:39.998Z,40
2017-03-17T10:19:48.768Z,30
2017-03-17T10:20:57.832Z,20
2017-03-17T10:22:07.201Z,20
2017-03-17T10:23:16.267Z,20
2017-03-17T10:24:25.873Z,15
2017-03-17T10:25:35.235Z,25
2017-03-17T10:26:44.290Z,40
2017-03-17T10:27:54.265Z,35
2017-03-17T10:29:03.636Z,25
2017-03-17T10:30:12.700Z,25
2017-03-17T10:31:21.769Z,25
2017-03-17T10:32:30.836Z,35
2017-03-17T10:33:39.594Z,40
2017-03-17T10:34:48.647Z,35
2017-03-17T10:35:57.716Z,25
2017-03-17T10:37:06.785Z,25
2017-03-17T10:38:15.850Z,25
2017-03-17T10:39:24.881Z,30
2017-03-17T10:40:33.638Z,30
2017-03-17T10:41:42.410Z,35
2017-03-17T10:42:51.179Z,35
2017-03-17T10:44:00.863Z,35
2017-03-17T10:45:09.834Z,40
2017-03-17T10:46:19.201Z,40
2017-03-17T10:47:28.579Z,35
2017-03-17T10:48:37.953Z,30
2017-03-17T10:49:47.319Z,25
2017-03-17T10:50:56.077Z,20
2017-03-17T10:52:05.445Z,25
2017-03-17T10:53:14.450Z,20
2017-03-17T10:54:24.121Z,20
2017-03-17T10:55:33.188Z,15
2017-03-17T10:56:42.791Z,15
2017-03-17T10:57:52.406Z,25
2017-03-17T10:59:02.018Z,25
2017-03-17T11:00:10.712Z,25
2017-03-17T11:01:19.781Z,20
2017-03-17T11:02:28.861Z,15
2017-03-17T11:03:38.130Z,15
2017-03-17T11:04:47.129Z,15
2017-03-17T11:05:56.192Z,15
2017-03-17T11:07:05.868Z,15
2017-03-17T11:08:15.243Z,20
2017-03-17T11:09:25.166Z,25
2017-03-17T11:10:34.238Z,35
2017-03-17T11:11:42.933Z,35
2017-03-17T11:12:52.310Z,35
2017-03-17T11:14:01.986Z,35
2017-03-17T11:15:11.077Z,40
2017-03-17T11:16:20.384Z,40
2017-03-17T11:17:29.603Z,40
2017-03-17T11:18:38.976Z,40
2017-03-17T11:19:48.042Z,40
2017-03-17T11:20:56.765Z,35
2017-03-17T11:22:05.841Z,30
2017-03-17T11:23:15.218Z,25
2017-03-17T11:24:24.569Z,25
2017-03-17T11:25:33.609Z,20
2017-03-17T11:26:42.364Z,20
2017-03-17T11:27:51.441Z,20
2017-03-17T11:29:00.822Z,20
2017-03-17T11:30:09.898Z,25
2017-03-17T11:31:18.655Z,25
2017-03-17T11:32:28.024Z,25
2017-03-17T11:33:36.723Z,25
2017-03-17T11:34:46.091Z,25
2017-03-17T11:35:55.718Z,25
2017-03-17T11:37:04.787Z,35
2017-03-17T11:38:13.861Z,35
2017-03-17T11:39:23.489Z,35
2017-03-17T11:40:32.253Z,30
2017-03-17T11:41:41.017Z,25
2017-03-17T11:42:50.398Z,20
2017-03-17T11:43:59.462Z,15
2017-03-17T11:45:08.538Z,15
2017-03-17T11:46:17.232Z,20
2017-03-17T11:47:26.289Z,35
2017-03-17T11:48:35.894Z,30
2017-03-17T11:49:44.969Z,35
2017-03-17T11:50:54.036Z,30
2017-03-17T11:52:03.108Z,15
2017-03-17T11:53:12.482Z,15
2017-03-17T11:54:21.859Z,10
2017-03-17T11:55:30.860Z,10
2017-03-17T11:56:40.362Z,15
2017-03-17T11:57:49.434Z,15
2017-03-17T11:58:59.421Z,15
2017-03-17T12:00:08.801Z,10
2017-03-17T12:01:18.478Z,15
2017-03-17T12:02:27.222Z,20
2017-03-17T12:03:36.277Z,15
2017-03-17T12:04:45.342Z,10
2017-03-17T12:05:54.108Z,10
2017-03-17T12:07:03.427Z,10
2017-03-17T12:08:12.433Z,10
2017-03-17T12:09:21.810Z,15
2017-03-17T12:10:30.570Z,15
2017-03-17T12:11:39.336Z,20
2017-03-17T12:12:49.015Z,20
2017-03-17T12:13:58.358Z,15
2017-03-17T12:15:07.726Z,15
2017-03-17T12:16:16.795Z,15
2017-03-17T12:17:26.165Z,15
2017-03-17T12:18:35.541Z,10
2017-03-17T12:19:45.224Z,10
2017-03-17T12:20:54.290Z,10
2017-03-17T12:22:03.365Z,10
2017-03-17T12:23:12.742Z,10
2017-03-17T12:24:22.730Z,10
2017-03-17T12:25:31.497Z,10
2017-03-17T12:26:40.566Z,10
2017-03-17T12:27:50.249Z,10
2017-03-17T12:28:59.625Z,5
2017-03-17T12:30:08.999Z,5
2017-03-17T12:31:18.076Z,5
2017-03-17T12:32:27.154Z,10
2017-03-17T12:33:36.522Z,10
2017-03-17T12:34:45.590Z,10
2017-03-17T12:35:55.266Z,10
2017-03-17T12:37:04.337Z,10
2017-03-17T12:38:13.411Z,10
2017-03-17T12:39:23.129Z,5
2017-03-17T12:40:32.498Z,10
2017-03-17T12:41:41.283Z,10
2017-03-17T12:42:50.654Z,10
2017-03-17T12:44:00.334Z,10
2017-03-17T12:45:09.710Z,10
2017-03-17T12:46:18.782Z,10
2017-03-17T12:47:27.846Z,10
2017-03-17T12:48:36.916Z,10
2017-03-17T12:49:46.497Z,10
2017-03-17T12:50:55.555Z,10
2017-03-17T12:52:04.861Z,10
2017-03-17T12:53:14.227Z,5
2017-03-17T12:54:23.919Z,5
2017-03-17T12:55:32.912Z,5
2017-03-17T12:56:41.603Z,5
2017-03-17T12:57:50.974Z,5
2017-03-17T12:59:00.357Z,5
2017-03-17T13:00:09.119Z,5
2017-03-17T13:01:17.879Z,5
2017-03-17T13:02:27.243Z,5
2017-03-17T13:03:36.314Z,5
2017-03-17T13:04:45.392Z,5
2017-03-17T13:05:54.389Z,5
2017-03-17T13:07:03.758Z,5
2017-03-17T13:08:13.129Z,5
2017-03-17T13:09:22.845Z,5
2017-03-17T13:10:31.876Z,5
2017-03-17T13:11:40.642Z,5
2017-03-17T13:12:50.249Z,5
2017-03-17T13:13:59.618Z,5
2017-03-17T13:15:08.691Z,5
2017-03-17T13:16:17.386Z,5
2017-03-17T13:17:27.068Z,5
2017-03-17T13:18:36.696Z,5
2017-03-17T13:19:46.221Z,5
2017-03-17T13:20:55.519Z,5
2017-03-17T13:22:04.286Z,5
2017-03-17T13:23:13.662Z,5
2017-03-17T13:24:23.035Z,5
2017-03-17T13:25:32.028Z,5
2017-03-17T13:26:41.085Z,5
2017-03-17T13:27:50.458Z,5
2017-03-17T13:28:59.832Z,5
2017-03-17T13:30:08.830Z,5
2017-03-17T13:31:17.635Z,5
2017-03-17T13:32:27.560Z,5
2017-03-17T13:33:36.930Z,5
2017-03-17T13:34:46.909Z,5
2017-03-17T13:35:55.668Z,5
2017-03-17T13:37:04.748Z,5
2017-03-17T13:38:14.075Z,5
2017-03-17T13:39:23.157Z,5
2017-03-17T13:40:32.158Z,5
2017-03-17T13:41:41.323Z,5
2017-03-17T13:42:50.640Z,5
2017-03-17T13:44:00.438Z,5
2017-03-17T13:45:09.499Z,5
2017-03-17T13:46:19.481Z,5
2017-03-17T13:47:28.827Z,5
2017-03-17T13:48:38.216Z,5
2017-03-17T13:49:47.286Z,5
2017-03-17T13:50:56.056Z,10
2017-03-17T13:52:04.981Z,10
2017-03-17T13:53:14.380Z,10
2017-03-17T13:54:23.760Z,15
2017-03-17T13:55:33.368Z,25
2017-03-17T13:56:42.366Z,20
2017-03-17T13:57:51.974Z,20
2017-03-17T13:59:01.952Z,15
2017-03-17T14:00:11.094Z,10
2017-03-17T14:01:20.167Z,10
2017-03-17T14:02:29.775Z,5
2017-03-17T14:03:39.412Z,10
2017-03-17T14:04:48.556Z,10
2017-03-17T14:05:57.249Z,10
2017-03-17T14:07:06.021Z,10
2017-03-17T14:08:15.091Z,10
2017-03-17T14:09:24.776Z,10
2017-03-17T14:10:34.086Z,5
2017-03-17T14:11:43.459Z,5
2017-03-17T14:12:52.208Z,5
2017-03-17T14:14:00.925Z,5
2017-03-17T14:15:09.697Z,5
2017-03-17T14:16:18.457Z,0
2017-03-17T14:17:27.226Z,0
2017-03-17T14:18:36.409Z,0
2017-03-17T14:19:45.165Z,5
2017-03-17T14:20:54.261Z,5
2017-03-17T14:22:03.023Z,5
2017-03-17T14:23:11.789Z,5
2017-03-17T14:24:20.543Z,10
2017-03-17T14:25:29.919Z,10
2017-03-17T14:26:38.915Z,10
2017-03-17T14:27:48.269Z,10
2017-03-17T14:28:57.638Z,10
2017-03-17T14:30:06.636Z,15
2017-03-17T14:31:15.401Z,15
2017-03-17T14:32:24.481Z,15
2017-03-17T14:33:33.638Z,15
2017-03-17T14:34:42.398Z,20
2017-03-17T14:35:51.215Z,15
2017-03-17T14:36:59.914Z,20
2017-03-17T14:38:09.337Z,20
2017-03-17T14:39:18.787Z,15
2017-03-17T14:40:27.547Z,15
2017-03-17T14:41:36.315Z,15
2017-03-17T14:42:45.105Z,10
2017-03-17T14:43:54.780Z,10
2017-03-17T14:45:03.949Z,10
2017-03-17T14:46:12.947Z,10
2017-03-17T14:47:22.039Z,15
2017-03-17T14:48:31.417Z,15
2017-03-17T14:49:40.722Z,15
2017-03-17T14:50:50.077Z,10
2017-03-17T14:51:59.139Z,15
2017-03-17T14:53:07.838Z,15
2017-03-17T14:54:17.151Z,10
2017-03-17T14:55:27.351Z,10
2017-03-17T14:56:36.526Z,15
2017-03-17T14:57:45.217Z,15
2017-03-17T14:58:54.553Z,10
2017-03-17T15:00:03.941Z,15
2017-03-17T15:01:12.635Z,10
2017-03-17T15:02:21.681Z,10
2017-03-17T15:03:31.516Z,10
2017-03-17T15:04:40.586Z,10
2017-03-17T15:05:49.359Z,10
2017-03-17T15:06:58.079Z,10
2017-03-17T15:08:07.769Z,10
2017-03-17T15:09:17.462Z,10
2017-03-17T15:10:26.804Z,10
2017-03-17T15:11:35.570Z,10
2017-03-17T15:12:44.577Z,15
2017-03-17T15:13:53.582Z,15
2017-03-17T15:15:03.159Z,15
2017-03-17T15:16:12.530Z,15
2017-03-17T15:17:21.832Z,10
2017-03-17T15:18:31.505Z,10
2017-03-17T15:19:40.577Z,10
2017-03-17T15:20:49.273Z,10
2017-03-17T15:21:58.040Z,5
2017-03-17T15:23:07.356Z,5
2017-03-17T15:24:16.759Z,5
2017-03-17T15:25:26.388Z,5
2017-03-17T15:26:35.177Z,5
2017-03-17T15:27:44.487Z,5
2017-03-17T15:28:53.854Z,10
2017-03-17T15:30:03.533Z,10
2017-03-17T15:31:12.295Z,10
2017-03-17T15:32:21.365Z,5
2017-03-17T15:33:30.669Z,5
2017-03-17T15:34:39.369Z,5
2017-03-17T15:35:48.440Z,5
2017-03-17T15:36:57.212Z,5
2017-03-17T15:38:06.824Z,5
2017-03-17T15:39:15.589Z,5
2017-03-17T15:40:24.953Z,5
2017-03-17T15:41:33.983Z,5
2017-03-17T15:42:43.357Z,5
2017-03-17T15:43:52.742Z,5
2017-03-17T15:45:02.122Z,5
2017-03-17T15:46:11.492Z,5
2017-03-17T15:47:20.263Z,5
2017-03-17T15:48:29.628Z,5
2017-03-17T15:49:38.395Z,5
2017-03-17T15:50:47.145Z,5
2017-03-17T15:51:56.812Z,5
2017-03-17T15:53:06.510Z,5
2017-03-17T15:54:15.574Z,5
2017-03-17T15:55:24.354Z,5
2017-03-17T15:56:33.452Z,5
2017-03-17T15:57:42.526Z,5
2017-03-17T15:58:52.522Z,5
2017-03-17T16:00:01.590Z,5
2017-03-17T16:01:10.657Z,5
2017-03-17T16:02:19.656Z,5
2017-03-17T16:03:29.038Z,5
2017-03-17T16:04:37.807Z,5
2017-03-17T16:05:46.569Z,5
2017-03-17T16:06:55.665Z,5
2017-03-17T16:08:04.666Z,5
2017-03-17T16:09:13.747Z,5
2017-03-17T16:10:23.671Z,5
2017-03-17T16:11:32.886Z,5
2017-03-17T16:12:41.919Z,5
2017-03-17T16:13:51.525Z,5
2017-03-17T16:15:00.599Z,5
2017-03-17T16:16:09.675Z,5
2017-03-17T16:17:18.447Z,0
2017-03-17T16:18:27.835Z,0
2017-03-17T16:19:36.828Z,0
2017-03-17T16:20:45.526Z,0
2017-03-17T16:21:54.218Z,0
2017-03-17T16:23:03.897Z,0
2017-03-17T16:24:12.978Z,0
2017-03-17T16:25:22.049Z,0
2017-03-17T16:26:30.957Z,0
2017-03-17T16:27:39.717Z,0
2017-03-17T16:28:49.400Z,0
2017-03-17T16:29:59.085Z,0
2017-03-17T16:31:08.756Z,0
2017-03-17T16:32:17.827Z,0
2017-03-17T16:33:27.202Z,0
2017-03-17T16:34:36.888Z,0
2017-03-17T16:35:45.651Z,0
2017-03-17T16:36:54.344Z,0
2017-03-17T16:38:03.410Z,0
2017-03-17T16:39:12.176Z,0
2017-03-17T16:40:21.369Z,0
2017-03-17T16:41:30.671Z,0
2017-03-17T16:42:39.742Z,0
2017-03-17T16:43:48.883Z,0
2017-03-17T16:44:59.183Z,0
2017-03-17T16:46:07.886Z,0
2017-03-17T16:47:16.580Z,0
2017-03-17T16:48:25.951Z,0
2017-03-17T16:49:35.010Z,0
2017-03-17T16:50:43.702Z,0
2017-03-17T16:51:53.109Z,0
2017-03-17T16:53:02.178Z,0